| Date | Time | Temp. (oF) | Dew Point (oF) | Rel. Hum. (%) | Press. (in.) | Wind Dir. | Wind Speed (mph) | Hourly Rainfall (in.) |
|
|---|---|---|---|---|---|---|---|---|---|
| 1 | 05/12 | 00:00 | 71 | 55 | 58 | 29.55 | WNW | 4 | 0.00 |
| 2 | 05/11 | 23:00 | 70 | 65 | 85 | 29.51 | WNW | 2 | 0.00 |
| 3 | 05/11 | 22:00 | 72 | 68 | 90 | 29.48 | SSW | 2 | 0.00 |
| 4 | 05/11 | 21:00 | 74 | 69 | 87 | 29.47 | S | 3 | 0.00 |
| 5 | 05/11 | 20:00 | 76 | 71 | 85 | 29.46 | SSW | 6 | 0.00 |
| 6 | 05/11 | 19:00 | 78 | 72 | 84 | 29.46 | SSE | 3 | 0.00 |
| 7 | 05/11 | 18:00 | 77 | 72 | 87 | 29.46 | S | 5 | 0.00 |
| 8 | 05/11 | 17:00 | 75 | 71 | 89 | 29.48 | S | 10 | 0.00 |
| 9 | 05/11 | 16:00 | 75 | 71 | 88 | 29.51 | SSE | 23 | 0.00 |
| 10 | 05/11 | 15:00 | 74 | 70 | 90 | 29.55 | S | 6 | 0.00 |
| 11 | 05/11 | 14:00 | 69 | 68 | 99 | 29.62 | SSE | 10 | 0.00 |
| 12 | 05/11 | 13:00 | 68 | 68 | 100 | 29.66 | SSE | 11 | 0.00 |
| 13 | 05/11 | 12:00 | 68 | 67 | 99 | 29.69 | SSE | 4 | 0.00 |
| 14 | 05/11 | 11:00 | 69 | 68 | 97 | 29.71 | SSE | 4 | 0.00 |
| 15 | 05/11 | 10:00 | 70 | 69 | 97 | 29.73 | S | 6 | 0.00 |
| 16 | 05/11 | 09:00 | 66 | 66 | 100 | 29.73 | S | 0 | 0.00 |
| 17 | 05/11 | 08:00 | 63 | 63 | 100 | 29.76 | S | 2 | 0.00 |
| 18 | 05/11 | 07:00 | 62 | 62 | 100 | 29.78 | SSE | 2 | 0.05 |
| 19 | 05/11 | 06:00 | 62 | 62 | 100 | 29.78 | S | 0 | 0.03 |
| 20 | 05/11 | 05:00 | 62 | 62 | 100 | 29.76 | ENE | 0 | 0.00 |
| 21 | 05/11 | 04:00 | 62 | 62 | 100 | 29.78 | NE | 1 | 0.00 |
| 22 | 05/11 | 03:00 | 62 | 62 | 100 | 29.79 | S | 0 | 0.00 |
| 23 | 05/11 | 02:00 | 62 | 61 | 99 | 29.79 | S | 0 | 0.00 |
| 24 | 05/11 | 01:00 | 63 | 62 | 99 | 29.81 | S | 0 | 0.00 |